sensor_id;sensor_type;location;lat;lon;timestamp;temperature;humidity
43143;DHT22;28750;59.842;17.584;2022-10-16T00:01:11;12.60;99.90
43143;DHT22;28750;59.842;17.584;2022-10-16T00:03:39;12.60;99.90
43143;DHT22;28750;59.842;17.584;2022-10-16T00:06:08;12.60;99.90
43143;DHT22;28750;59.842;17.584;2022-10-16T00:08:36;12.60;99.90
43143;DHT22;28750;59.842;17.584;2022-10-16T00:11:10;12.60;99.90
43143;DHT22;28750;59.842;17.584;2022-10-16T00:13:38;12.60;99.90
43143;DHT22;28750;59.842;17.584;2022-10-16T00:16:06;12.60;99.90
43143;DHT22;28750;59.842;17.584;2022-10-16T00:18:33;12.60;99.90
43143;DHT22;28750;59.842;17.584;2022-10-16T00:21:06;12.50;99.90
43143;DHT22;28750;59.842;17.584;2022-10-16T00:23:34;12.40;99.90
43143;DHT22;28750;59.842;17.584;2022-10-16T00:26:07;12.50;99.90
43143;DHT22;28750;59.842;17.584;2022-10-16T00:28:35;12.50;99.90
43143;DHT22;28750;59.842;17.584;2022-10-16T00:31:07;12.50;99.90
43143;DHT22;28750;59.842;17.584;2022-10-16T00:33:35;12.40;99.90
43143;DHT22;28750;59.842;17.584;2022-10-16T00:36:03;12.30;99.90
43143;DHT22;28750;59.842;17.584;2022-10-16T00:38:31;12.40;99.90
43143;DHT22;28750;59.842;17.584;2022-10-16T00:40:58;12.40;99.90
43143;DHT22;28750;59.842;17.584;2022-10-16T00:48:50;12.50;99.90
43143;DHT22;28750;59.842;17.584;2022-10-16T00:51:23;12.50;99.90
43143;DHT22;28750;59.842;17.584;2022-10-16T00:53:52;12.40;99.90
43143;DHT22;28750;59.842;17.584;2022-10-16T00:56:19;12.40;99.90
43143;DHT22;28750;59.842;17.584;2022-10-16T00:58:46;12.50;99.90
43143;DHT22;28750;59.842;17.584;2022-10-16T01:01:13;12.50;99.90
43143;DHT22;28750;59.842;17.584;2022-10-16T01:03:41;12.50;99.90
43143;DHT22;28750;59.842;17.584;2022-10-16T01:06:24;12.40;99.90
43143;DHT22;28750;59.842;17.584;2022-10-16T01:09:22;12.50;99.90
43143;DHT22;28750;59.842;17.584;2022-10-16T01:14:26;12.40;99.90
43143;DHT22;28750;59.842;17.584;2022-10-16T01:17:16;12.40;99.90
43143;DHT22;28750;59.842;17.584;2022-10-16T01:20:14;12.40;99.90
43143;DHT22;28750;59.842;17.584;2022-10-16T01:28:13;12.40;99.90
43143;DHT22;28750;59.842;17.584;2022-10-16T01:30:42;12.40;99.90
43143;DHT22;28750;59.842;17.584;2022-10-16T01:33:21;12.40;99.90
43143;DHT22;28750;59.842;17.584;2022-10-16T01:35:56;12.40;99.90
43143;DHT22;28750;59.842;17.584;2022-10-16T01:38:34;12.40;99.90
43143;DHT22;28750;59.842;17.584;2022-10-16T01:41:11;12.30;99.90
43143;DHT22;28750;59.842;17.584;2022-10-16T01:43:47;12.40;99.90
43143;DHT22;28750;59.842;17.584;2022-10-16T01:46:17;12.40;99.90
43143;DHT22;28750;59.842;17.584;2022-10-16T01:48:47;12.40;99.90
43143;DHT22;28750;59.842;17.584;2022-10-16T01:51:15;12.40;99.90
43143;DHT22;28750;59.842;17.584;2022-10-16T01:53:48;12.30;99.90
43143;DHT22;28750;59.842;17.584;2022-10-16T01:56:17;12.40;99.90
43143;DHT22;28750;59.842;17.584;2022-10-16T01:58:51;12.40;99.90
43143;DHT22;28750;59.842;17.584;2022-10-16T02:01:21;12.40;99.90
43143;DHT22;28750;59.842;17.584;2022-10-16T02:03:52;12.30;99.90
43143;DHT22;28750;59.842;17.584;2022-10-16T02:06:20;12.40;99.90
43143;DHT22;28750;59.842;17.584;2022-10-16T02:08:48;12.30;99.90
43143;DHT22;28750;59.842;17.584;2022-10-16T02:11:15;12.30;99.90
43143;DHT22;28750;59.842;17.584;2022-10-16T02:13:46;12.30;99.90
43143;DHT22;28750;59.842;17.584;2022-10-16T02:16:15;12.30;99.90
43143;DHT22;28750;59.842;17.584;2022-10-16T02:18:43;12.20;99.90
43143;DHT22;28750;59.842;17.584;2022-10-16T02:21:26;12.20;99.90
43143;DHT22;28750;59.842;17.584;2022-10-16T02:24:08;12.30;99.90
43143;DHT22;28750;59.842;17.584;2022-10-16T02:26:50;12.30;99.90
43143;DHT22;28750;59.842;17.584;2022-10-16T02:29:22;12.30;99.90
43143;DHT22;28750;59.842;17.584;2022-10-16T02:31:54;12.30;99.90
43143;DHT22;28750;59.842;17.584;2022-10-16T02:34:23;12.30;99.90
43143;DHT22;28750;59.842;17.584;2022-10-16T02:36:52;12.30;99.90
43143;DHT22;28750;59.842;17.584;2022-10-16T02:39:24;12.30;99.90
43143;DHT22;28750;59.842;17.584;2022-10-16T02:42:09;12.20;99.90
43143;DHT22;28750;59.842;17.584;2022-10-16T02:44:44;12.20;99.90
43143;DHT22;28750;59.842;17.584;2022-10-16T02:47:20;12.20;99.90
43143;DHT22;28750;59.842;17.584;2022-10-16T02:50:03;12.20;99.90
43143;DHT22;28750;59.842;17.584;2022-10-16T02:52:40;12.20;99.90
43143;DHT22;28750;59.842;17.584;2022-10-16T02:55:22;12.20;99.90
43143;DHT22;28750;59.842;17.584;2022-10-16T02:57:55;12.20;99.90
43143;DHT22;28750;59.842;17.584;2022-10-16T03:00:41;12.20;99.90
43143;DHT22;28750;59.842;17.584;2022-10-16T03:03:21;12.10;99.90
43143;DHT22;28750;59.842;17.584;2022-10-16T03:05:59;12.10;99.90
43143;DHT22;28750;59.842;17.584;2022-10-16T03:08:42;12.10;99.90
43143;DHT22;28750;59.842;17.584;2022-10-16T03:11:25;12.10;99.90
43143;DHT22;28750;59.842;17.584;2022-10-16T03:14:03;12.10;99.90
43143;DHT22;28750;59.842;17.584;2022-10-16T03:16:41;12.10;99.90
43143;DHT22;28750;59.842;17.584;2022-10-16T03:19:17;12.10;99.90
43143;DHT22;28750;59.842;17.584;2022-10-16T03:21:55;12.10;99.90
43143;DHT22;28750;59.842;17.584;2022-10-16T03:24:44;12.10;99.90
43143;DHT22;28750;59.842;17.584;2022-10-16T03:27:19;12.10;99.90
43143;DHT22;28750;59.842;17.584;2022-10-16T03:30:00;12.10;99.90
43143;DHT22;28750;59.842;17.584;2022-10-16T03:32:34;12.10;99.90
43143;DHT22;28750;59.842;17.584;2022-10-16T03:35:13;12.00;99.90
43143;DHT22;28750;59.842;17.584;2022-10-16T03:37:56;12.00;99.90
43143;DHT22;28750;59.842;17.584;2022-10-16T03:40:30;12.10;99.90
43143;DHT22;28750;59.842;17.584;2022-10-16T03:43:12;12.10;99.90
43143;DHT22;28750;59.842;17.584;2022-10-16T03:45:51;12.10;99.90
43143;DHT22;28750;59.842;17.584;2022-10-16T03:48:29;12.10;99.90
43143;DHT22;28750;59.842;17.584;2022-10-16T03:51:13;12.10;99.90
43143;DHT22;28750;59.842;17.584;2022-10-16T03:53:56;12.20;99.90
43143;DHT22;28750;59.842;17.584;2022-10-16T03:56:33;12.10;99.90
43143;DHT22;28750;59.842;17.584;2022-10-16T03:59:12;12.10;99.90
43143;DHT22;28750;59.842;17.584;2022-10-16T04:01:52;12.10;99.90
43143;DHT22;28750;59.842;17.584;2022-10-16T04:04:28;12.00;99.90
43143;DHT22;28750;59.842;17.584;2022-10-16T04:07:05;12.00;99.90
43143;DHT22;28750;59.842;17.584;2022-10-16T04:09:49;12.00;99.90
43143;DHT22;28750;59.842;17.584;2022-10-16T04:12:37;12.00;99.90
43143;DHT22;28750;59.842;17.584;2022-10-16T04:15:13;12.00;99.90
43143;DHT22;28750;59.842;17.584;2022-10-16T04:17:52;12.00;99.90
43143;DHT22;28750;59.842;17.584;2022-10-16T04:20:40;11.90;99.90
43143;DHT22;28750;59.842;17.584;2022-10-16T04:23:18;11.90;99.90
43143;DHT22;28750;59.842;17.584;2022-10-16T04:25:55;11.90;99.90
43143;DHT22;28750;59.842;17.584;2022-10-16T04:28:42;11.90;99.90
43143;DHT22;28750;59.842;17.584;2022-10-16T04:31:20;12.00;99.90
43143;DHT22;28750;59.842;17.584;2022-10-16T04:34:01;12.00;99.90
43143;DHT22;28750;59.842;17.584;2022-10-16T04:36:36;12.00;99.90
43143;DHT22;28750;59.842;17.584;2022-10-16T04:39:15;12.00;99.90
43143;DHT22;28750;59.842;17.584;2022-10-16T04:41:53;12.00;99.90
43143;DHT22;28750;59.842;17.584;2022-10-16T04:44:32;12.00;99.90
43143;DHT22;28750;59.842;17.584;2022-10-16T04:47:09;11.90;99.90
43143;DHT22;28750;59.842;17.584;2022-10-16T04:49:49;11.90;99.90
43143;DHT22;28750;59.842;17.584;2022-10-16T04:52:33;11.90;99.90
43143;DHT22;28750;59.842;17.584;2022-10-16T04:55:13;11.90;99.90
43143;DHT22;28750;59.842;17.584;2022-10-16T04:57:52;11.90;99.90
43143;DHT22;28750;59.842;17.584;2022-10-16T05:00:33;11.80;99.90
43143;DHT22;28750;59.842;17.584;2022-10-16T05:03:12;11.90;99.90
43143;DHT22;28750;59.842;17.584;2022-10-16T05:05:48;11.90;99.90
43143;DHT22;28750;59.842;17.584;2022-10-16T05:08:25;11.90;99.90
43143;DHT22;28750;59.842;17.584;2022-10-16T05:11:01;11.90;99.90
43143;DHT22;28750;59.842;17.584;2022-10-16T05:13:37;11.90;99.90
43143;DHT22;28750;59.842;17.584;2022-10-16T05:16:10;11.90;99.90
43143;DHT22;28750;59.842;17.584;2022-10-16T05:18:52;11.90;99.90
43143;DHT22;28750;59.842;17.584;2022-10-16T05:21:29;11.90;99.90
43143;DHT22;28750;59.842;17.584;2022-10-16T05:24:10;11.90;99.90
43143;DHT22;28750;59.842;17.584;2022-10-16T05:26:57;11.90;99.90
43143;DHT22;28750;59.842;17.584;2022-10-16T05:29:37;11.90;99.90
43143;DHT22;28750;59.842;17.584;2022-10-16T05:32:15;11.90;99.90
43143;DHT22;28750;59.842;17.584;2022-10-16T05:34:56;11.90;99.90
43143;DHT22;28750;59.842;17.584;2022-10-16T05:37:33;11.90;99.90
43143;DHT22;28750;59.842;17.584;2022-10-16T05:40:23;11.90;99.90
43143;DHT22;28750;59.842;17.584;2022-10-16T05:43:09;11.90;99.90
43143;DHT22;28750;59.842;17.584;2022-10-16T05:46:04;11.90;99.90
43143;DHT22;28750;59.842;17.584;2022-10-16T05:48:43;11.90;99.90
43143;DHT22;28750;59.842;17.584;2022-10-16T05:51:18;11.80;99.90
43143;DHT22;28750;59.842;17.584;2022-10-16T05:53:54;11.70;99.90
43143;DHT22;28750;59.842;17.584;2022-10-16T05:56:32;11.70;99.90
43143;DHT22;28750;59.842;17.584;2022-10-16T05:59:12;11.70;99.90
43143;DHT22;28750;59.842;17.584;2022-10-16T06:01:53;11.60;99.90
43143;DHT22;28750;59.842;17.584;2022-10-16T06:04:30;11.70;99.90
43143;DHT22;28750;59.842;17.584;2022-10-16T06:07:10;11.80;99.90
43143;DHT22;28750;59.842;17.584;2022-10-16T06:09:53;11.70;99.90
43143;DHT22;28750;59.842;17.584;2022-10-16T06:12:33;11.80;99.90
43143;DHT22;28750;59.842;17.584;2022-10-16T06:15:13;11.80;99.90
43143;DHT22;28750;59.842;17.584;2022-10-16T06:17:56;11.80;99.90
43143;DHT22;28750;59.842;17.584;2022-10-16T06:20:40;11.80;99.90
43143;DHT22;28750;59.842;17.584;2022-10-16T06:23:19;11.90;99.90
43143;DHT22;28750;59.842;17.584;2022-10-16T06:26:14;11.90;99.90
43143;DHT22;28750;59.842;17.584;2022-10-16T06:28:50;11.90;99.90
43143;DHT22;28750;59.842;17.584;2022-10-16T06:31:27;11.90;99.90
43143;DHT22;28750;59.842;17.584;2022-10-16T06:34:08;11.90;99.90
43143;DHT22;28750;59.842;17.584;2022-10-16T06:36:46;11.90;99.90
43143;DHT22;28750;59.842;17.584;2022-10-16T06:39:27;11.90;99.90
43143;DHT22;28750;59.842;17.584;2022-10-16T06:42:04;12.10;99.90
43143;DHT22;28750;59.842;17.584;2022-10-16T06:44:39;12.00;99.90
43143;DHT22;28750;59.842;17.584;2022-10-16T06:47:21;11.90;99.90
43143;DHT22;28750;59.842;17.584;2022-10-16T06:49:52;12.00;99.90
43143;DHT22;28750;59.842;17.584;2022-10-16T06:52:34;12.00;99.90
43143;DHT22;28750;59.842;17.584;2022-10-16T06:55:07;11.90;99.90
43143;DHT22;28750;59.842;17.584;2022-10-16T06:57:53;12.00;99.90
43143;DHT22;28750;59.842;17.584;2022-10-16T07:00:27;12.00;99.90
43143;DHT22;28750;59.842;17.584;2022-10-16T07:03:07;12.00;99.90
43143;DHT22;28750;59.842;17.584;2022-10-16T07:05:52;12.10;99.90
43143;DHT22;28750;59.842;17.584;2022-10-16T07:08:34;12.10;99.90
43143;DHT22;28750;59.842;17.584;2022-10-16T07:11:16;12.10;99.90
43143;DHT22;28750;59.842;17.584;2022-10-16T07:13:54;12.20;99.90
43143;DHT22;28750;59.842;17.584;2022-10-16T07:16:35;12.20;99.90
43143;DHT22;28750;59.842;17.584;2022-10-16T07:19:05;12.20;99.90
43143;DHT22;28750;59.842;17.584;2022-10-16T07:21:44;12.20;99.90
43143;DHT22;28750;59.842;17.584;2022-10-16T07:24:18;12.20;99.90
43143;DHT22;28750;59.842;17.584;2022-10-16T07:27:00;12.20;99.90
43143;DHT22;28750;59.842;17.584;2022-10-16T07:29:36;12.20;99.90
43143;DHT22;28750;59.842;17.584;2022-10-16T07:32:11;12.20;99.90
43143;DHT22;28750;59.842;17.584;2022-10-16T07:34:46;12.20;99.90
43143;DHT22;28750;59.842;17.584;2022-10-16T07:37:24;12.20;99.90
43143;DHT22;28750;59.842;17.584;2022-10-16T07:40:02;12.20;99.90
43143;DHT22;28750;59.842;17.584;2022-10-16T07:42:33;12.20;99.90
43143;DHT22;28750;59.842;17.584;2022-10-16T07:45:11;12.40;99.90
43143;DHT22;28750;59.842;17.584;2022-10-16T07:47:51;12.40;99.90
43143;DHT22;28750;59.842;17.584;2022-10-16T07:50:27;12.40;99.90
43143;DHT22;28750;59.842;17.584;2022-10-16T07:53:02;12.40;99.90
43143;DHT22;28750;59.842;17.584;2022-10-16T07:55:33;12.40;99.90
43143;DHT22;28750;59.842;17.584;2022-10-16T07:58:01;12.30;99.90
43143;DHT22;28750;59.842;17.584;2022-10-16T08:00:38;12.50;99.90
43143;DHT22;28750;59.842;17.584;2022-10-16T08:03:16;12.50;99.90
43143;DHT22;28750;59.842;17.584;2022-10-16T08:05:52;12.60;99.90
43143;DHT22;28750;59.842;17.584;2022-10-16T08:08:26;12.50;99.90
43143;DHT22;28750;59.842;17.584;2022-10-16T08:11:04;12.40;99.90
43143;DHT22;28750;59.842;17.584;2022-10-16T08:13:36;12.50;99.90
43143;DHT22;28750;59.842;17.584;2022-10-16T08:16:12;12.60;99.90
43143;DHT22;28750;59.842;17.584;2022-10-16T08:18:44;12.60;99.90
43143;DHT22;28750;59.842;17.584;2022-10-16T08:21:24;12.70;99.90
43143;DHT22;28750;59.842;17.584;2022-10-16T08:24:01;12.80;99.90
43143;DHT22;28750;59.842;17.584;2022-10-16T08:26:32;12.90;99.90
43143;DHT22;28750;59.842;17.584;2022-10-16T08:28:59;12.90;99.90
43143;DHT22;28750;59.842;17.584;2022-10-16T08:31:26;12.90;99.90
43143;DHT22;28750;59.842;17.584;2022-10-16T08:33:53;12.80;99.90
43143;DHT22;28750;59.842;17.584;2022-10-16T08:36:20;12.80;99.90
43143;DHT22;28750;59.842;17.584;2022-10-16T08:38:48;12.80;99.90
43143;DHT22;28750;59.842;17.584;2022-10-16T08:44:23;12.80;99.90
43143;DHT22;28750;59.842;17.584;2022-10-16T08:47:13;12.80;99.90
43143;DHT22;28750;59.842;17.584;2022-10-16T08:49:58;12.70;99.90
43143;DHT22;28750;59.842;17.584;2022-10-16T08:52:29;12.70;99.90
43143;DHT22;28750;59.842;17.584;2022-10-16T08:54:58;12.70;99.90
43143;DHT22;28750;59.842;17.584;2022-10-16T08:57:25;12.70;99.90
43143;DHT22;28750;59.842;17.584;2022-10-16T08:59:53;12.60;99.90
43143;DHT22;28750;59.842;17.584;2022-10-16T09:03:14;12.60;99.90
43143;DHT22;28750;59.842;17.584;2022-10-16T09:09:14;12.40;99.90
43143;DHT22;28750;59.842;17.584;2022-10-16T09:14:44;12.50;99.90
43143;DHT22;28750;59.842;17.584;2022-10-16T09:20:26;12.50;99.90
43143;DHT22;28750;59.842;17.584;2022-10-16T09:25:33;12.60;99.90
43143;DHT22;28750;59.842;17.584;2022-10-16T09:28:00;12.70;99.90
43143;DHT22;28750;59.842;17.584;2022-10-16T09:30:29;13.10;99.90
43143;DHT22;28750;59.842;17.584;2022-10-16T09:32:58;13.00;99.90
43143;DHT22;28750;59.842;17.584;2022-10-16T09:35:46;12.70;99.90
43143;DHT22;28750;59.842;17.584;2022-10-16T09:38:26;12.60;99.90
43143;DHT22;28750;59.842;17.584;2022-10-16T09:40:59;12.50;99.90
43143;DHT22;28750;59.842;17.584;2022-10-16T09:43:36;12.60;99.90
43143;DHT22;28750;59.842;17.584;2022-10-16T09:46:07;12.70;99.90
43143;DHT22;28750;59.842;17.584;2022-10-16T09:48:43;13.00;99.90
43143;DHT22;28750;59.842;17.584;2022-10-16T09:51:25;13.00;99.90
43143;DHT22;28750;59.842;17.584;2022-10-16T09:56:32;14.00;99.90
43143;DHT22;28750;59.842;17.584;2022-10-16T09:59:10;14.40;99.90
43143;DHT22;28750;59.842;17.584;2022-10-16T10:01:45;15.00;99.90
43143;DHT22;28750;59.842;17.584;2022-10-16T10:04:13;14.70;99.90
43143;DHT22;28750;59.842;17.584;2022-10-16T10:09:32;14.80;1.00
43143;DHT22;28750;59.842;17.584;2022-10-16T10:12:05;14.90;1.00
43143;DHT22;28750;59.842;17.584;2022-10-16T10:14:38;15.10;99.90
43143;DHT22;28750;59.842;17.584;2022-10-16T10:19:53;15.10;99.90
43143;DHT22;28750;59.842;17.584;2022-10-16T10:22:40;15.20;99.90
43143;DHT22;28750;59.842;17.584;2022-10-16T10:39:01;14.90;99.90
43143;DHT22;28750;59.842;17.584;2022-10-16T10:44:37;14.70;90.80
43143;DHT22;28750;59.842;17.584;2022-10-16T10:50:34;14.40;99.90
43143;DHT22;28750;59.842;17.584;2022-10-16T10:53:24;14.70;1.00
43143;DHT22;28750;59.842;17.584;2022-10-16T10:56:15;14.60;26.60
43143;DHT22;28750;59.842;17.584;2022-10-16T11:01:55;14.50;99.90
43143;DHT22;28750;59.842;17.584;2022-10-16T11:04:34;14.30;99.90
43143;DHT22;28750;59.842;17.584;2022-10-16T11:07:21;14.10;1.00
43143;DHT22;28750;59.842;17.584;2022-10-16T11:10:03;13.90;1.00
43143;DHT22;28750;59.842;17.584;2022-10-16T11:12:35;13.70;99.90
43143;DHT22;28750;59.842;17.584;2022-10-16T11:17:53;14.00;1.00
43143;DHT22;28750;59.842;17.584;2022-10-16T11:20:33;13.80;1.00
43143;DHT22;28750;59.842;17.584;2022-10-16T11:23:02;13.40;1.00
43143;DHT22;28750;59.842;17.584;2022-10-16T11:25:33;13.30;6.20
43143;DHT22;28750;59.842;17.584;2022-10-16T11:33:41;13.80;16.90
43143;DHT22;28750;59.842;17.584;2022-10-16T11:36:22;13.50;8.30
43143;DHT22;28750;59.842;17.584;2022-10-16T11:39:21;13.50;90.80
43143;DHT22;28750;59.842;17.584;2022-10-16T11:41:54;13.40;99.90
43143;DHT22;28750;59.842;17.584;2022-10-16T11:44:38;13.30;99.90
43143;DHT22;28750;59.842;17.584;2022-10-16T11:47:30;13.30;99.90
43143;DHT22;28750;59.842;17.584;2022-10-16T11:50:02;13.30;99.90
43143;DHT22;28750;59.842;17.584;2022-10-16T11:52:39;13.30;99.90
43143;DHT22;28750;59.842;17.584;2022-10-16T11:55:17;13.30;99.90
43143;DHT22;28750;59.842;17.584;2022-10-16T11:57:53;13.30;1.00
43143;DHT22;28750;59.842;17.584;2022-10-16T12:00:28;13.50;1.00
43143;DHT22;28750;59.842;17.584;2022-10-16T12:02:57;13.50;99.90
43143;DHT22;28750;59.842;17.584;2022-10-16T12:05:52;13.50;99.90
43143;DHT22;28750;59.842;17.584;2022-10-16T12:08:21;13.50;1.00
43143;DHT22;28750;59.842;17.584;2022-10-16T12:10:49;13.50;99.90
43143;DHT22;28750;59.842;17.584;2022-10-16T12:13:37;13.40;99.90
43143;DHT22;28750;59.842;17.584;2022-10-16T12:18:43;13.40;1.00
43143;DHT22;28750;59.842;17.584;2022-10-16T12:21:12;13.40;1.00
43143;DHT22;28750;59.842;17.584;2022-10-16T12:23:54;13.60;1.00
43143;DHT22;28750;59.842;17.584;2022-10-16T12:26:28;13.50;99.90
43143;DHT22;28750;59.842;17.584;2022-10-16T12:32:03;13.30;1.00
43143;DHT22;28750;59.842;17.584;2022-10-16T12:34:43;13.30;1.00
43143;DHT22;28750;59.842;17.584;2022-10-16T12:37:25;13.30;87.00
43143;DHT22;28750;59.842;17.584;2022-10-16T12:39:54;13.20;99.90
43143;DHT22;28750;59.842;17.584;2022-10-16T12:44:56;13.10;99.90
43143;DHT22;28750;59.842;17.584;2022-10-16T12:47:50;13.10;99.90
43143;DHT22;28750;59.842;17.584;2022-10-16T12:50:38;13.00;1.00
43143;DHT22;28750;59.842;17.584;2022-10-16T12:53:23;12.90;1.00
43143;DHT22;28750;59.842;17.584;2022-10-16T12:56:21;12.90;1.00
43143;DHT22;28750;59.842;17.584;2022-10-16T13:01:35;12.50;50.40
43143;DHT22;28750;59.842;17.584;2022-10-16T13:04:31;12.40;1.00
43143;DHT22;28750;59.842;17.584;2022-10-16T13:07:28;12.30;99.90
43143;DHT22;28750;59.842;17.584;2022-10-16T13:10:21;12.20;99.90
43143;DHT22;28750;59.842;17.584;2022-10-16T13:15:52;12.10;1.00
43143;DHT22;28750;59.842;17.584;2022-10-16T13:26:40;12.40;99.90
43143;DHT22;28750;59.842;17.584;2022-10-16T13:29:09;12.40;99.90
43143;DHT22;28750;59.842;17.584;2022-10-16T13:31:38;12.30;99.90
43143;DHT22;28750;59.842;17.584;2022-10-16T13:34:06;12.20;99.90
43143;DHT22;28750;59.842;17.584;2022-10-16T13:36:49;12.10;99.90
43143;DHT22;28750;59.842;17.584;2022-10-16T13:39:28;12.10;99.90
43143;DHT22;28750;59.842;17.584;2022-10-16T13:44:41;12.30;99.90
43143;DHT22;28750;59.842;17.584;2022-10-16T13:50:17;12.30;99.90
43143;DHT22;28750;59.842;17.584;2022-10-16T13:52:45;12.30;99.90
43143;DHT22;28750;59.842;17.584;2022-10-16T13:55:17;12.10;99.90
43143;DHT22;28750;59.842;17.584;2022-10-16T13:57:45;12.10;99.90
43143;DHT22;28750;59.842;17.584;2022-10-16T14:00:24;11.90;99.90
43143;DHT22;28750;59.842;17.584;2022-10-16T14:03:03;11.80;99.90
43143;DHT22;28750;59.842;17.584;2022-10-16T14:05:34;11.90;99.90
43143;DHT22;28750;59.842;17.584;2022-10-16T14:08:01;11.80;99.90
43143;DHT22;28750;59.842;17.584;2022-10-16T14:10:31;11.70;99.90
43143;DHT22;28750;59.842;17.584;2022-10-16T14:13:02;11.70;99.90
43143;DHT22;28750;59.842;17.584;2022-10-16T14:15:31;11.60;99.90
43143;DHT22;28750;59.842;17.584;2022-10-16T14:17:59;11.70;99.90
43143;DHT22;28750;59.842;17.584;2022-10-16T14:20:28;11.60;99.90
43143;DHT22;28750;59.842;17.584;2022-10-16T14:23:18;11.60;99.90
43143;DHT22;28750;59.842;17.584;2022-10-16T14:25:46;11.70;99.90
43143;DHT22;28750;59.842;17.584;2022-10-16T14:28:17;11.60;99.90
43143;DHT22;28750;59.842;17.584;2022-10-16T14:30:54;11.50;99.90
43143;DHT22;28750;59.842;17.584;2022-10-16T14:38:42;11.40;99.90
43143;DHT22;28750;59.842;17.584;2022-10-16T14:41:09;11.40;99.90
43143;DHT22;28750;59.842;17.584;2022-10-16T14:43:39;11.40;99.90
43143;DHT22;28750;59.842;17.584;2022-10-16T14:46:19;11.30;99.90
43143;DHT22;28750;59.842;17.584;2022-10-16T14:48:48;11.30;99.90
43143;DHT22;28750;59.842;17.584;2022-10-16T14:51:17;11.30;99.90
43143;DHT22;28750;59.842;17.584;2022-10-16T14:53:45;11.30;99.90
43143;DHT22;28750;59.842;17.584;2022-10-16T14:56:18;11.20;99.90
43143;DHT22;28750;59.842;17.584;2022-10-16T14:58:46;11.10;99.90
43143;DHT22;28750;59.842;17.584;2022-10-16T15:01:13;11.10;99.90
43143;DHT22;28750;59.842;17.584;2022-10-16T15:03:40;11.10;99.90
43143;DHT22;28750;59.842;17.584;2022-10-16T15:06:13;11.10;99.90
43143;DHT22;28750;59.842;17.584;2022-10-16T15:08:40;11.00;99.90
43143;DHT22;28750;59.842;17.584;2022-10-16T15:11:16;11.00;99.90
43143;DHT22;28750;59.842;17.584;2022-10-16T15:13:45;11.00;99.90
43143;DHT22;28750;59.842;17.584;2022-10-16T15:16:14;10.90;99.90
43143;DHT22;28750;59.842;17.584;2022-10-16T15:18:41;10.90;99.90
43143;DHT22;28750;59.842;17.584;2022-10-16T15:23:52;10.80;99.90
43143;DHT22;28750;59.842;17.584;2022-10-16T15:26:19;10.80;99.90
43143;DHT22;28750;59.842;17.584;2022-10-16T15:28:46;10.60;99.90
43143;DHT22;28750;59.842;17.584;2022-10-16T15:31:13;10.70;99.90
43143;DHT22;28750;59.842;17.584;2022-10-16T15:33:43;10.70;99.90
43143;DHT22;28750;59.842;17.584;2022-10-16T15:36:28;10.80;99.90
43143;DHT22;28750;59.842;17.584;2022-10-16T15:38:55;10.70;99.90
43143;DHT22;28750;59.842;17.584;2022-10-16T15:41:23;10.80;99.90
43143;DHT22;28750;59.842;17.584;2022-10-16T15:43:50;10.70;99.90
43143;DHT22;28750;59.842;17.584;2022-10-16T15:46:19;10.70;99.90
43143;DHT22;28750;59.842;17.584;2022-10-16T15:48:49;10.70;99.90
43143;DHT22;28750;59.842;17.584;2022-10-16T15:51:17;10.70;99.90
43143;DHT22;28750;59.842;17.584;2022-10-16T15:53:44;10.60;99.90
43143;DHT22;28750;59.842;17.584;2022-10-16T15:56:13;10.60;99.90
43143;DHT22;28750;59.842;17.584;2022-10-16T15:58:41;10.60;99.90
43143;DHT22;28750;59.842;17.584;2022-10-16T16:01:11;10.50;99.90
43143;DHT22;28750;59.842;17.584;2022-10-16T16:03:38;10.50;99.90
43143;DHT22;28750;59.842;17.584;2022-10-16T16:06:12;10.40;99.90
43143;DHT22;28750;59.842;17.584;2022-10-16T16:08:39;10.50;99.90
43143;DHT22;28750;59.842;17.584;2022-10-16T16:11:09;10.40;99.90
43143;DHT22;28750;59.842;17.584;2022-10-16T16:13:36;10.40;99.90
43143;DHT22;28750;59.842;17.584;2022-10-16T16:16:15;10.30;99.90
43143;DHT22;28750;59.842;17.584;2022-10-16T16:18:43;10.40;99.90
43143;DHT22;28750;59.842;17.584;2022-10-16T16:21:11;10.40;99.90
43143;DHT22;28750;59.842;17.584;2022-10-16T16:23:38;10.30;99.90
43143;DHT22;28750;59.842;17.584;2022-10-16T16:26:26;10.30;99.90
43143;DHT22;28750;59.842;17.584;2022-10-16T16:28:54;10.30;99.90
43143;DHT22;28750;59.842;17.584;2022-10-16T16:31:29;10.30;99.90
43143;DHT22;28750;59.842;17.584;2022-10-16T16:33:56;10.30;99.90
43143;DHT22;28750;59.842;17.584;2022-10-16T16:36:25;10.30;99.90
43143;DHT22;28750;59.842;17.584;2022-10-16T16:38:52;10.30;99.90
43143;DHT22;28750;59.842;17.584;2022-10-16T16:41:24;10.20;99.90
43143;DHT22;28750;59.842;17.584;2022-10-16T16:43:53;10.20;99.90
43143;DHT22;28750;59.842;17.584;2022-10-16T16:46:21;10.30;99.90
43143;DHT22;28750;59.842;17.584;2022-10-16T16:48:49;10.30;99.90
43143;DHT22;28750;59.842;17.584;2022-10-16T16:51:17;10.30;99.90
43143;DHT22;28750;59.842;17.584;2022-10-16T16:53:50;10.20;99.90
43143;DHT22;28750;59.842;17.584;2022-10-16T16:56:20;10.20;99.90
43143;DHT22;28750;59.842;17.584;2022-10-16T16:58:48;10.20;99.90
43143;DHT22;28750;59.842;17.584;2022-10-16T17:01:16;10.20;99.90
43143;DHT22;28750;59.842;17.584;2022-10-16T17:03:44;10.10;99.90
43143;DHT22;28750;59.842;17.584;2022-10-16T17:06:13;10.10;99.90
43143;DHT22;28750;59.842;17.584;2022-10-16T17:08:41;10.10;99.90
43143;DHT22;28750;59.842;17.584;2022-10-16T17:11:13;10.10;99.90
43143;DHT22;28750;59.842;17.584;2022-10-16T17:13:41;10.00;99.90
43143;DHT22;28750;59.842;17.584;2022-10-16T17:16:09;10.10;99.90
43143;DHT22;28750;59.842;17.584;2022-10-16T17:18:39;10.00;99.90
43143;DHT22;28750;59.842;17.584;2022-10-16T17:21:09;10.00;99.90
43143;DHT22;28750;59.842;17.584;2022-10-16T17:23:37;9.90;99.90
43143;DHT22;28750;59.842;17.584;2022-10-16T17:26:17;9.90;99.90
43143;DHT22;28750;59.842;17.584;2022-10-16T17:28:44;9.80;99.90
43143;DHT22;28750;59.842;17.584;2022-10-16T17:31:14;9.80;99.90
43143;DHT22;28750;59.842;17.584;2022-10-16T17:33:42;9.70;99.90
43143;DHT22;28750;59.842;17.584;2022-10-16T17:36:09;9.80;99.90
43143;DHT22;28750;59.842;17.584;2022-10-16T17:38:39;9.80;99.90
43143;DHT22;28750;59.842;17.584;2022-10-16T17:41:15;9.70;99.90
43143;DHT22;28750;59.842;17.584;2022-10-16T17:43:43;9.70;99.90
43143;DHT22;28750;59.842;17.584;2022-10-16T17:46:12;9.50;99.90
43143;DHT22;28750;59.842;17.584;2022-10-16T17:48:41;9.40;99.90
43143;DHT22;28750;59.842;17.584;2022-10-16T17:51:11;9.40;99.90